Time;durP1;ratioP1;P1;durP2;ratioP2;P2;SDS_P1;SDS_P2;PMS_P1;PMS_P2;Temp;Humidity;BMP_temperature;BMP_pressure;BME280_temperature;BME280_humidity;BME280_pressure;Samples;Min_cycle;Max_cycle;Signal;HPM_P1;HPM_P2
2022/08/14 00:00:14;;;;;;;2.33;2.13;;;28.60;43.10;;;-147.20;100.00;58430.41;5112960;28;20047;-9
2022/08/14 00:02:42;;;;;;;2.25;2.13;;;28.60;43.10;;;-147.20;100.00;58430.41;5113049;28;20401;-21
2022/08/14 00:05:13;;;;;;;2.50;2.20;;;28.60;43.10;;;-147.20;100.00;58430.41;5112903;28;20067;-9
2022/08/14 00:07:39;;;;;;;2.15;1.95;;;28.60;43.00;;;-147.20;100.00;58430.41;5112815;28;20071;-9
2022/08/14 00:10:10;;;;;;;2.85;2.10;;;28.60;43.00;;;-147.20;100.00;58430.41;5112828;28;20060;-9
2022/08/14 00:12:42;;;;;;;2.05;1.80;;;28.60;43.00;;;-147.20;100.00;58430.41;5112743;28;20043;-10
2022/08/14 00:15:22;;;;;;;2.17;1.95;;;28.60;43.00;;;-147.20;100.00;58430.41;5112791;28;20123;-10
2022/08/14 00:17:49;;;;;;;1.95;1.85;;;28.60;43.00;;;-147.20;100.00;58430.41;5112536;28;20102;-10
2022/08/14 00:20:19;;;;;;;2.47;2.28;;;28.60;43.60;;;-147.20;100.00;58430.41;5112668;28;20214;-10
2022/08/14 00:22:45;;;;;;;3.13;2.08;;;28.70;43.10;;;-147.20;100.00;58430.41;5112639;28;20477;-10
2022/08/14 00:25:10;;;;;;;2.17;1.98;;;28.70;43.10;;;-147.20;100.00;58430.41;5112826;28;20036;-9
2022/08/14 00:27:37;;;;;;;3.03;2.40;;;28.60;43.10;;;-147.20;100.00;58430.41;5112727;28;20127;-10
2022/08/14 00:30:08;;;;;;;2.30;2.10;;;28.60;43.00;;;-147.20;100.00;58430.41;5112820;28;20117;-10
2022/08/14 00:32:35;;;;;;;;;;;28.60;43.10;;;-147.20;100.00;58430.41;5094581;28;20055;-9
2022/08/14 00:35:03;;;;;;;2.45;1.88;;;28.60;43.10;;;-147.20;100.00;58430.41;5112885;28;19915;-10
2022/08/14 00:37:30;;;;;;;1.80;1.70;;;28.60;43.10;;;-147.20;100.00;58430.41;5112254;28;20071;-10
2022/08/14 00:40:00;;;;;;;2.35;2.15;;;28.60;43.10;;;-147.20;100.00;58430.41;5113752;28;20443;-16
2022/08/14 00:42:27;;;;;;;2.72;2.25;;;28.60;43.10;;;-147.20;100.00;58430.41;5116493;28;20474;-9
2022/08/14 00:44:54;;;;;;;2.42;1.88;;;28.60;43.10;;;-147.20;100.00;58430.41;5115377;28;20048;-10
2022/08/14 00:47:23;;;;;;;2.20;2.10;;;28.60;43.10;;;-147.20;100.00;58430.41;5115595;28;20043;-10
2022/08/14 00:49:52;;;;;;;2.13;2.00;;;28.60;43.10;;;-147.20;100.00;58430.41;5115957;28;20389;-10
2022/08/14 00:52:19;;;;;;;2.03;1.83;;;28.60;43.20;;;-147.20;100.00;58430.41;5115667;28;20055;-10
2022/08/14 00:54:51;;;;;;;3.80;2.10;;;28.50;43.10;;;-147.20;100.00;58430.41;5115612;28;20075;-10
2022/08/14 00:57:20;;;;;;;2.20;2.00;;;28.60;43.20;;;-147.20;100.00;58430.41;5115457;28;20049;-9
2022/08/14 00:59:45;;;;;;;2.00;1.80;;;28.60;43.20;;;-147.20;100.00;58430.41;5115523;28;20094;-9
2022/08/14 01:02:14;;;;;;;2.00;1.90;;;28.60;43.20;;;-147.20;100.00;58430.41;5115740;28;20489;-9
2022/08/14 01:04:43;;;;;;;1.80;1.70;;;28.60;43.20;;;-147.20;100.00;58430.41;5096529;28;20467;-9
2022/08/14 01:07:09;;;;;;;2.20;2.00;;;28.50;43.10;;;-147.20;100.00;58430.41;5115394;28;20506;-9
2022/08/14 01:09:36;;;;;;;2.15;1.95;;;28.60;43.20;;;-147.20;100.00;58430.41;5115459;28;20398;-9
2022/08/14 01:12:04;;;;;;;2.35;2.00;;;28.60;43.20;;;-147.20;100.00;58430.41;5115831;28;20374;-9
2022/08/14 01:14:30;;;;;;;2.28;2.08;;;28.50;43.10;;;-147.20;100.00;58430.41;5115361;28;20053;-9
2022/08/14 01:16:56;;;;;;;2.00;1.80;;;28.50;43.10;;;-147.20;100.00;58430.41;5115475;28;20092;-10
2022/08/14 01:22:10;;;;;;;2.47;2.28;;;28.50;43.10;;;-147.20;100.00;58430.41;5115321;28;20097;-10
2022/08/14 01:24:36;;;;;;;2.47;2.28;;;28.50;43.20;;;-147.20;100.00;58430.41;5111449;28;20040;-10
2022/08/14 01:27:04;;;;;;;2.40;2.20;;;28.60;43.30;;;-147.20;100.00;58430.41;5115237;28;20116;-9
2022/08/14 01:29:36;;;;;;;3.17;2.13;;;28.50;43.20;;;-147.20;100.00;58430.41;5115131;28;20048;-10
2022/08/14 01:32:04;;;;;;;2.55;2.10;;;28.50;43.20;;;-147.20;100.00;58430.41;5115092;28;20562;-9
2022/08/14 01:34:31;;;;;;;2.22;2.13;;;28.60;43.20;;;-147.20;100.00;58430.41;5096845;28;20051;-10
2022/08/14 01:36:59;;;;;;;1.85;1.75;;;28.50;43.20;;;-147.20;100.00;58430.41;5078959;28;20052;-10
2022/08/14 01:39:25;;;;;;;2.03;1.83;;;28.50;43.20;;;-147.20;100.00;58430.41;5115083;28;20113;-10
2022/08/14 01:41:55;;;;;;;2.10;2.00;;;28.50;43.10;;;-147.20;100.00;58430.41;5114870;28;20046;-10
2022/08/14 01:44:24;;;;;;;2.00;1.90;;;28.50;43.10;;;-147.20;100.00;58430.41;5114979;28;20409;-10
2022/08/14 01:46:53;;;;;;;2.03;1.90;;;28.50;43.20;;;-147.20;100.00;58430.41;5114895;28;20093;-9
2022/08/14 01:49:21;;;;;;;2.40;2.20;;;28.50;43.20;;;-147.20;100.00;58430.41;5114770;28;20047;-10
2022/08/14 01:51:47;;;;;;;2.10;1.90;;;28.50;43.20;;;-147.20;100.00;58430.41;5114497;28;20050;-9
2022/08/14 01:54:21;;;;;;;2.15;1.98;;;28.50;43.20;;;-147.20;100.00;58430.41;5114809;28;20059;-10
2022/08/14 01:56:57;;;;;;;2.70;2.13;;;28.50;43.20;;;-147.20;100.00;58430.41;5114977;28;20059;-10
2022/08/14 01:59:30;;;;;;;2.13;1.92;;;28.50;43.20;;;-147.20;100.00;58430.41;5115332;28;20047;-9
2022/08/14 02:01:59;;;;;;;2.60;2.15;;;28.50;43.20;;;-147.20;100.00;58430.41;5115110;28;20047;-9
2022/08/14 02:04:32;;;;;;;2.20;2.00;;;28.50;43.10;;;-147.20;100.00;58430.41;5114331;28;20052;-9
2022/08/14 02:06:58;;;;;;;1.95;1.85;;;28.50;43.20;;;-147.20;100.00;58430.41;5114489;28;20495;-10
2022/08/14 02:09:24;;;;;;;1.90;1.80;;;28.50;43.20;;;-147.20;100.00;58430.41;5114948;28;20043;-9
2022/08/14 02:11:51;;;;;;;2.10;2.00;;;28.50;43.20;;;-147.20;100.00;58430.41;5114847;28;20138;-9
2022/08/14 02:14:18;;;;;;;2.53;2.15;;;28.50;43.20;;;-147.20;100.00;58430.41;5114486;28;20043;-10
2022/08/14 02:16:52;;;;;;;2.25;2.05;;;28.50;43.20;;;-147.20;100.00;58430.41;5094540;28;20059;-9
2022/08/14 02:19:23;;;;;;;1.83;1.73;;;28.50;43.20;;;-147.20;100.00;58430.41;5114324;28;20058;-10
2022/08/14 02:21:56;;;;;;;1.88;1.77;;;28.50;43.20;;;-147.20;100.00;58430.41;5115008;28;20039;-9
2022/08/14 02:24:28;;;;;;;2.45;2.25;;;28.50;43.20;;;-147.20;100.00;58430.41;5114929;28;20044;-9
2022/08/14 02:26:56;;;;;;;2.20;2.00;;;28.50;43.20;;;-147.20;100.00;58430.41;5114835;28;20054;-9
2022/08/14 02:29:28;;;;;;;1.95;1.75;;;28.50;43.80;;;-147.20;100.00;58430.41;5114197;28;20055;-9
2022/08/14 02:31:58;;;;;;;2.40;2.20;;;28.50;43.30;;;-147.20;100.00;58430.41;5114513;28;20066;-9
2022/08/14 02:34:30;;;;;;;2.03;1.92;;;28.40;43.20;;;-147.20;100.00;58430.41;5114143;28;20074;-9
2022/08/14 02:37:08;;;;;;;2.10;2.00;;;28.50;43.30;;;-147.20;100.00;58430.41;5114507;28;20141;-9
2022/08/14 02:39:45;;;;;;;3.05;1.73;;;28.40;43.30;;;-147.20;100.00;58430.41;5114175;28;20056;-9
2022/08/14 02:42:20;;;;;;;2.38;2.17;;;28.40;43.30;;;-147.20;100.00;58430.41;5114221;28;20048;-10
2022/08/14 02:44:46;;;;;;;1.80;1.70;;;28.40;43.30;;;-147.20;100.00;58430.41;5095602;28;20059;-9
2022/08/14 02:47:12;;;;;;;2.35;1.83;;;28.40;43.40;;;-147.20;100.00;58430.41;5113782;28;20059;-10
2022/08/14 02:49:38;;;;;;;2.45;1.95;;;28.40;43.30;;;-147.20;100.00;58430.41;5114586;28;20081;-10
2022/08/14 02:52:06;;;;;;;2.05;1.90;;;28.40;43.30;;;-147.20;100.00;58430.41;5112084;28;20039;-9
2022/08/14 02:54:33;;;;;;;2.28;2.05;;;28.40;43.40;;;-147.20;100.00;58430.41;5114165;28;20039;-10
2022/08/14 02:57:04;;;;;;;2.28;2.08;;;28.40;43.30;;;-147.20;100.00;58430.41;5113775;28;20050;-10
2022/08/14 02:59:32;;;;;;;;;;;28.40;43.40;;;-147.20;100.00;58430.41;5114533;28;20063;-10
2022/08/14 03:01:59;;;;;;;2.30;2.00;;;28.40;43.40;;;-147.20;100.00;58430.41;5094129;28;20003;-10
2022/08/14 03:04:29;;;;;;;1.88;1.77;;;28.40;43.40;;;-147.20;100.00;58430.41;5113687;28;20143;-9
2022/08/14 03:06:55;;;;;;;2.00;1.90;;;28.40;43.40;;;-147.20;100.00;58430.41;5113669;28;20132;-9
2022/08/14 03:09:21;;;;;;;2.80;2.00;;;28.40;43.40;;;-147.20;100.00;58430.41;5113947;28;20134;-10
2022/08/14 03:11:47;;;;;;;2.17;1.98;;;28.40;43.40;;;-147.20;100.00;58430.41;5113809;28;20396;-9
2022/08/14 03:14:13;;;;;;;1.80;1.70;;;28.40;43.40;;;-147.20;100.00;58430.41;5114070;28;20039;-10
2022/08/14 03:16:40;;;;;;;2.10;1.88;;;28.40;43.40;;;-147.20;100.00;58430.41;5113448;28;20043;-10
2022/08/14 03:19:07;;;;;;;2.15;1.98;;;28.40;43.50;;;-147.20;100.00;58430.41;5113889;28;20367;-9
2022/08/14 03:21:36;;;;;;;2.38;2.17;;;28.40;43.50;;;-147.20;100.00;58430.41;5113487;28;20042;-9
2022/08/14 03:24:10;;;;;;;2.17;1.98;;;28.30;43.40;;;-147.20;100.00;58430.41;5113713;28;20055;-9
2022/08/14 03:26:39;;;;;;;2.33;2.13;;;28.30;43.50;;;-147.20;100.00;58430.41;5113394;28;20134;-9
2022/08/14 03:29:06;;;;;;;2.05;1.92;;;28.30;43.50;;;-147.20;100.00;58430.41;5113230;28;20052;-9
2022/08/14 03:31:32;;;;;;;2.35;2.15;;;28.30;43.50;;;-147.20;100.00;58430.41;5113260;28;20051;-9
2022/08/14 03:33:58;;;;;;;2.03;1.92;;;28.30;43.50;;;-147.20;100.00;58430.41;5113281;28;20139;-10
2022/08/14 03:36:24;;;;;;;1.92;1.83;;;28.30;43.50;;;-147.20;100.00;58430.41;5113150;28;20087;-10
2022/08/14 03:38:54;;;;;;;1.80;1.70;;;28.30;43.50;;;-147.20;100.00;58430.41;5094855;28;20134;-11
2022/08/14 03:41:26;;;;;;;2.10;1.83;;;28.30;43.50;;;-147.20;100.00;58430.41;5113566;28;20059;-10
2022/08/14 03:43:56;;;;;;;2.03;1.90;;;28.30;43.50;;;-147.20;100.00;58430.41;5113397;28;20281;-10
2022/08/14 03:46:29;;;;;;;2.08;1.85;;;28.30;43.50;;;-147.20;100.00;58430.41;5113410;28;20047;-10
2022/08/14 03:48:56;;;;;;;2.20;2.00;;;28.30;43.50;;;-147.20;100.00;58430.41;5112965;28;20134;-10
2022/08/14 03:51:27;;;;;;;2.65;2.15;;;28.30;43.50;;;-147.20;100.00;58430.41;5113126;28;20055;-9
2022/08/14 03:53:56;;;;;;;3.75;2.38;;;28.30;43.60;;;-147.20;100.00;58430.41;5113358;28;20138;-10
2022/08/14 03:56:24;;;;;;;2.05;1.88;;;28.30;43.60;;;-147.20;100.00;58430.41;5094697;28;20495;-10
2022/08/14 03:58:54;;;;;;;1.80;1.70;;;28.30;43.60;;;-147.20;100.00;58430.41;5112780;28;20048;-9
2022/08/14 04:01:23;;;;;;;2.50;2.25;;;28.30;43.60;;;-147.20;100.00;58430.41;5113037;28;20043;-9
2022/08/14 04:03:52;;;;;;;1.92;1.83;;;28.30;43.60;;;-147.20;100.00;58430.41;5112894;28;20140;-10
2022/08/14 04:06:19;;;;;;;1.80;1.70;;;28.30;43.60;;;-147.20;100.00;58430.41;5112690;28;20416;-10
2022/08/14 04:08:46;;;;;;;2.20;2.00;;;28.30;43.60;;;-147.20;100.00;58430.41;5112714;28;20070;-10
2022/08/14 04:11:12;;;;;;;2.10;1.98;;;28.30;43.60;;;-147.20;100.00;58430.41;5094426;28;20402;-10
2022/08/14 04:13:41;;;;;;;2.17;2.00;;;28.30;43.60;;;-147.20;100.00;58430.41;5113633;28;20055;-10
2022/08/14 04:16:21;;;;;;;2.00;1.90;;;28.30;43.50;;;-147.20;100.00;58430.41;5098406;28;20079;-9
2022/08/14 04:18:55;;;;;;;2.30;2.10;;;28.30;43.60;;;-147.20;100.00;58430.41;5116570;28;20048;-9
2022/08/14 04:21:24;;;;;;;1.58;1.48;;;28.30;43.50;;;-147.20;100.00;58430.41;5116236;28;20065;-9
2022/08/14 04:23:51;;;;;;;2.20;2.08;;;28.30;43.50;;;-147.20;100.00;58430.41;5116295;28;20449;-10
2022/08/14 04:26:20;;;;;;;1.90;1.70;;;28.30;43.40;;;-147.20;100.00;58430.41;5116257;28;20043;-10
2022/08/14 04:28:48;;;;;;;2.00;1.90;;;28.40;43.50;;;-147.20;100.00;58430.41;5115968;28;20122;-9
2022/08/14 04:31:15;;;;;;;2.00;1.80;;;28.40;43.40;;;-147.20;100.00;58430.41;5116150;28;20405;-10
2022/08/14 04:33:41;;;;;;;1.95;1.70;;;28.40;43.30;;;-147.20;100.00;58430.41;5116607;28;20056;-10
2022/08/14 04:36:08;;;;;;;2.45;2.00;;;28.50;43.30;;;-147.20;100.00;58430.41;5116056;28;20057;-10
2022/08/14 04:44:04;;;;;;;1.90;1.80;;;28.50;43.20;;;33.20;26.00;101494.09;5116012;28;20500;-9
2022/08/14 04:46:29;;;;;;;1.88;1.77;;;28.60;43.20;;;32.36;27.80;101095.81;5115845;28;20050;-10
2022/08/14 04:48:56;;;;;;;2.00;1.80;;;28.60;43.20;;;32.43;27.51;101110.38;5096431;28;20048;-10
2022/08/14 04:51:26;;;;;;;1.77;1.67;;;28.60;43.20;;;32.43;27.83;101101.41;5115911;28;20086;-9
2022/08/14 04:53:53;;;;;;;1.90;1.80;;;28.60;43.10;;;32.48;27.83;101104.47;5115855;28;20047;-10
2022/08/14 04:56:23;;;;;;;1.67;1.58;;;28.60;43.10;;;32.45;27.31;101092.09;5115643;28;20853;-9
2022/08/14 04:58:56;;;;;;;2.10;1.90;;;28.70;43.10;;;32.52;27.33;101100.41;5115829;28;20043;-10
2022/08/14 05:01:24;;;;;;;3.13;2.00;;;28.60;43.00;;;32.54;27.69;101092.97;5116059;28;20096;-10
2022/08/14 05:03:50;;;;;;;1.92;1.83;;;28.70;43.10;;;32.55;27.62;101089.25;5115670;28;20051;-10
2022/08/14 05:06:17;;;;;;;2.15;1.85;;;28.70;43.10;;;32.59;27.17;101097.88;5096926;28;20048;-9
2022/08/14 05:08:42;;;;;;;1.60;1.50;;;28.70;43.00;;;32.56;27.16;101079.25;5115300;28;20055;-10
2022/08/14 05:11:09;;;;;;;1.80;1.70;;;28.70;43.00;;;32.58;27.61;101093.47;5115625;28;20493;-10
2022/08/14 05:13:36;;;;;;;1.85;1.75;;;28.70;43.00;;;32.59;27.69;101087.91;5115838;28;20058;-10
2022/08/14 05:16:04;;;;;;;2.08;1.60;;;28.70;43.00;;;32.63;27.58;101093.88;5115499;28;20043;-9
2022/08/14 05:18:36;;;;;;;2.08;1.70;;;28.80;43.00;;;32.60;27.36;101086.88;5115691;28;20462;-10
2022/08/14 05:21:06;;;;;;;1.75;1.65;;;28.80;43.00;;;32.66;27.53;101088.97;5115294;28;20051;-10
2022/08/14 05:23:36;;;;;;;2.28;1.80;;;28.80;42.90;;;32.66;27.28;101079.97;5115356;28;20044;-9
2022/08/14 05:26:12;;;;;;;1.80;1.70;;;28.80;42.90;;;32.71;27.46;101080.31;5114994;28;20044;-10
2022/08/14 05:28:43;;;;;;;1.92;1.80;;;28.90;42.90;;;32.72;27.23;101082.03;5115342;28;20113;-9
2022/08/14 05:31:12;;;;;;;1.70;1.60;;;28.90;42.90;;;32.75;27.60;101087.09;5115598;28;20096;-10
2022/08/14 05:33:38;;;;;;;2.13;1.55;;;28.90;43.40;;;32.80;27.35;101089.31;5115190;28;20055;-10
2022/08/14 05:36:10;;;;;;;1.77;1.67;;;29.00;42.80;;;32.79;27.17;101079.50;5115220;28;20405;-9
2022/08/14 05:38:43;;;;;;;1.70;1.60;;;29.00;42.70;;;32.84;27.50;101085.25;5115132;28;20048;-10
2022/08/14 05:41:14;;;;;;;1.70;1.60;;;29.00;42.70;;;32.85;27.43;101078.81;5115381;28;20096;-10
2022/08/14 05:43:40;;;;;;;;;;;29.00;42.70;;;32.98;26.84;101089.13;5116056;28;20070;-10
2022/08/14 05:46:11;;;;;;;1.70;1.60;;;29.00;42.70;;;32.90;26.86;101081.88;5115106;28;20410;-10
2022/08/14 05:48:36;;;;;;;1.60;1.50;;;29.00;42.80;;;32.88;26.92;101083.91;5115279;28;20044;-9
2022/08/14 05:51:02;;;;;;;1.90;1.80;;;29.00;42.80;;;32.89;26.89;101084.75;5114897;28;20051;-10
2022/08/14 05:53:28;;;;;;;2.05;1.88;;;29.00;42.80;;;32.89;26.97;101076.63;5114860;28;20043;-10
2022/08/14 05:55:54;;;;;;;2.13;1.80;;;29.00;42.70;;;32.89;27.12;101073.91;5114912;28;20127;-10
2022/08/14 05:58:21;;;;;;;1.50;1.40;;;29.10;42.70;;;32.91;27.37;101072.72;5115033;28;20434;-10
2022/08/14 06:00:48;;;;;;;1.70;1.60;;;29.10;42.60;;;32.97;26.93;101077.47;5114799;28;20040;-10
2022/08/14 06:03:18;;;;;;;1.70;1.60;;;29.20;42.60;;;32.97;26.90;101063.91;5096590;28;20039;-10
2022/08/14 06:05:47;;;;;;;1.60;1.50;;;29.20;42.50;;;33.01;26.91;101070.69;5114467;28;20056;-10
2022/08/14 06:08:25;;;;;;;1.80;1.70;;;29.20;42.40;;;33.03;27.16;101060.53;5096426;28;20130;-9
2022/08/14 06:11:02;;;;;;;1.58;1.48;;;29.20;42.40;;;33.06;27.11;101056.63;5114893;28;20094;-9
2022/08/14 06:13:34;;;;;;;1.70;1.60;;;29.30;42.30;;;33.14;26.73;101067.44;5114880;28;20051;-9
2022/08/14 06:15:59;;;;;;;1.60;1.50;;;29.40;42.30;;;33.18;27.01;101058.00;5114799;28;20044;-10
2022/08/14 06:18:26;;;;;;;2.03;1.83;;;29.40;42.20;;;33.21;26.61;101056.81;5114776;28;20104;-10
2022/08/14 06:20:53;;;;;;;1.60;1.50;;;29.40;42.20;;;33.26;27.05;101050.88;5114232;28;20087;-10
2022/08/14 06:23:19;;;;;;;1.80;1.70;;;29.50;42.20;;;33.28;26.40;101044.28;5114671;28;20051;-16
2022/08/14 06:25:45;;;;;;;1.50;1.40;;;29.50;42.10;;;33.33;26.95;101044.59;5114634;28;20043;-9
2022/08/14 06:28:19;;;;;;;2.45;1.60;;;29.50;42.00;;;33.31;26.50;101035.78;5114879;28;20040;-10
2022/08/14 06:30:45;;;;;;;1.70;1.60;;;29.60;42.00;;;33.41;26.33;101046.44;5114816;28;20083;-10
2022/08/14 06:33:11;;;;;;;1.70;1.60;;;29.60;41.90;;;33.45;26.54;101049.63;5114174;28;20408;-10
2022/08/14 06:35:39;;;;;;;1.70;1.60;;;29.60;41.80;;;33.49;26.68;101045.56;5114231;28;20118;-9
2022/08/14 06:38:04;;;;;;;1.90;1.80;;;29.70;41.80;;;33.52;26.18;101039.81;5113070;28;20138;-10
2022/08/14 06:40:35;;;;;;;1.55;1.45;;;29.70;41.80;;;33.51;26.42;101030.81;5113993;28;20450;-10
2022/08/14 06:43:05;;;;;;;1.70;1.60;;;29.80;41.80;;;33.57;26.43;101038.25;5114322;28;20079;-10
2022/08/14 06:45:32;;;;;;;1.52;1.40;;;29.80;41.70;;;33.62;26.47;101043.16;5095971;28;20046;-10
2022/08/14 06:48:00;;;;;;;1.73;1.63;;;29.80;41.70;;;33.63;26.33;101047.56;5095766;28;20055;-9
2022/08/14 06:50:27;;;;;;;2.95;1.83;;;29.90;41.70;;;33.68;26.56;101050.63;5114256;28;20119;-10
2022/08/14 06:52:54;;;;;;;1.60;1.50;;;29.90;41.60;;;33.70;26.29;101039.63;5114118;28;20044;-9
2022/08/14 06:55:20;;;;;;;1.65;1.55;;;29.90;41.60;;;33.76;25.98;101047.03;5114224;28;20044;-10
2022/08/14 06:57:49;;;;;;;1.77;1.67;;;29.90;41.50;;;33.78;26.12;101036.84;5095625;28;20051;-10
2022/08/14 07:00:22;;;;;;;1.65;1.55;;;30.00;41.50;;;33.82;26.13;101029.22;5113677;28;20058;-9
2022/08/14 07:05:48;;;;;;;1.55;1.45;;;30.10;41.50;;;33.84;26.20;101019.88;5113728;28;20104;-9
2022/08/14 07:08:21;;;;;;;1.67;1.58;;;30.10;41.40;;;33.91;25.96;101017.28;5113579;28;20500;-10
2022/08/14 07:10:57;;;;;;;1.48;1.38;;;30.10;41.40;;;33.91;26.24;101017.28;5114009;28;20379;-9
2022/08/14 07:13:24;;;;;;;1.70;1.60;;;30.10;41.30;;;33.92;26.09;101021.69;5113711;28;20118;-10
2022/08/14 07:15:53;;;;;;;1.60;1.50;;;30.10;41.40;;;33.90;25.94;101015.63;5113687;28;20040;-9
2022/08/14 07:18:25;;;;;;;1.70;1.60;;;30.00;41.40;;;33.87;26.04;101010.53;5113482;28;20375;-10
2022/08/14 07:20:52;;;;;;;1.63;1.52;;;30.00;41.50;;;33.88;26.07;101017.63;5113786;28;20382;-9
2022/08/14 07:23:20;;;;;;;1.40;1.30;;;30.00;41.60;;;33.87;26.01;101022.22;5095205;28;20039;-9
2022/08/14 07:25:48;;;;;;;1.67;1.58;;;30.00;41.50;;;33.89;25.76;101011.19;5095271;28;20078;-9
2022/08/14 07:28:18;;;;;;;1.65;1.55;;;30.00;41.60;;;33.83;26.17;101009.19;5113299;28;20139;-12
2022/08/14 07:30:44;;;;;;;1.50;1.40;;;29.90;41.60;;;33.84;26.16;101010.91;5113968;28;20536;-10
2022/08/14 07:33:11;;;;;;;1.55;1.42;;;29.90;41.70;;;33.81;26.08;101014.78;5095162;28;20067;-9
2022/08/14 07:35:39;;;;;;;1.75;1.65;;;29.80;41.70;;;33.78;26.40;101007.88;5113579;28;20047;-10
2022/08/14 07:38:07;;;;;;;1.70;1.60;;;29.80;41.70;;;33.79;26.14;101008.72;5113103;28;20043;-10
2022/08/14 07:40:33;;;;;;;1.73;1.63;;;29.90;41.70;;;-147.20;100.00;58430.41;5113127;28;20075;-10
2022/08/14 07:43:02;;;;;;;1.73;1.60;;;29.90;41.60;;;-147.20;100.00;58430.41;5113163;28;20048;-10
2022/08/14 07:45:28;;;;;;;1.63;1.50;;;29.90;41.60;;;-147.20;100.00;58430.41;5113353;28;20130;-9
2022/08/14 07:47:57;;;;;;;1.50;1.40;;;30.00;41.60;;;-147.20;100.00;58430.41;5113224;28;20552;-10
2022/08/14 07:50:24;;;;;;;1.48;1.38;;;30.00;41.50;;;-147.20;100.00;58430.41;5113108;28;20082;-10
2022/08/14 07:52:50;;;;;;;1.90;1.80;;;30.00;41.50;;;-147.20;100.00;58430.41;5113059;28;20043;-10
2022/08/14 07:55:17;;;;;;;1.80;1.58;;;30.00;41.50;;;-147.20;100.00;58430.41;5113031;28;20539;-10
2022/08/14 07:57:45;;;;;;;1.63;1.50;;;30.00;41.50;;;-147.20;100.00;58430.41;5113048;28;20047;-10
2022/08/14 08:00:21;;;;;;;1.65;1.50;;;30.10;41.60;;;-147.20;100.00;58430.41;5093353;28;20075;-10
2022/08/14 08:02:50;;;;;;;1.60;1.50;;;30.10;41.50;;;-147.20;100.00;58430.41;5113326;28;20900;-10
2022/08/14 08:05:18;;;;;;;1.60;1.50;;;30.10;41.50;;;-147.20;100.00;58430.41;5112745;28;20048;-10
2022/08/14 08:07:45;;;;;;;1.65;1.55;;;30.10;42.00;;;-147.20;100.00;58430.41;5112731;28;20454;-21
2022/08/14 08:10:31;;;;;;;1.45;1.35;;;30.10;41.50;;;-147.20;100.00;58430.41;5112893;28;20055;-9
2022/08/14 08:13:20;;;;;;;1.45;1.35;;;30.00;41.50;;;-147.20;100.00;58430.41;5113181;28;20039;-9
2022/08/14 08:15:56;;;;;;;1.45;1.35;;;30.00;41.50;;;-147.20;100.00;58430.41;5112732;28;20519;-9
2022/08/14 08:18:24;;;;;;;1.65;1.55;;;30.00;41.50;;;-147.20;100.00;58430.41;5094379;28;20083;-10
2022/08/14 08:20:53;;;;;;;1.40;1.30;;;30.10;41.50;;;-147.20;100.00;58430.41;5112593;28;20135;-9
2022/08/14 08:23:21;;;;;;;1.50;1.40;;;30.10;41.50;;;-147.20;100.00;58430.41;5112625;28;20047;-10
2022/08/14 08:25:50;;;;;;;1.70;1.60;;;30.10;41.40;;;-147.20;100.00;58430.41;5113142;28;20040;-10
2022/08/14 08:28:26;;;;;;;1.65;1.55;;;30.10;41.50;;;-147.20;100.00;58430.41;5112561;28;20047;-9
2022/08/14 08:31:01;;;;;;;1.50;1.40;;;30.10;41.40;;;-147.20;100.00;58430.41;5113029;28;20397;-10
2022/08/14 08:33:31;;;;;;;1.67;1.58;;;30.10;41.40;;;-147.20;100.00;58430.41;5112581;28;20043;-10
2022/08/14 08:36:02;;;;;;;1.60;1.50;;;30.10;41.50;;;-147.20;100.00;58430.41;5112519;28;20493;-10
2022/08/14 08:38:28;;;;;;;1.60;1.50;;;30.10;41.50;;;-147.20;100.00;58430.41;5112596;28;20052;-9
2022/08/14 08:40:57;;;;;;;1.70;1.60;;;30.10;41.50;;;-147.20;100.00;58430.41;5112463;28;20139;-9
2022/08/14 08:43:27;;;;;;;1.63;1.52;;;30.00;41.50;;;-147.20;100.00;58430.41;5112444;28;20097;-9
2022/08/14 08:45:55;;;;;;;1.70;1.48;;;30.00;41.60;;;-147.20;100.00;58430.41;5112262;28;20471;-11
2022/08/14 08:48:22;;;;;;;2.05;1.95;;;30.00;41.70;;;-147.20;100.00;58430.41;5112224;28;20131;-10
2022/08/14 08:50:49;;;;;;;1.70;1.60;;;29.90;41.70;;;-147.20;100.00;58430.41;5112232;28;20067;-10
2022/08/14 08:53:15;;;;;;;1.60;1.50;;;29.90;41.70;;;-147.20;100.00;58430.41;5092428;28;20101;-9
2022/08/14 08:55:43;;;;;;;1.67;1.58;;;29.90;41.80;;;-147.20;100.00;58430.41;5094308;28;20047;-10
2022/08/14 08:58:16;;;;;;;2.88;1.42;;;29.90;41.80;;;-147.20;100.00;58430.41;5112101;28;20047;-9
2022/08/14 09:00:47;;;;;;;1.60;1.50;;;29.90;41.90;;;-147.20;100.00;58430.41;5113589;28;20439;-10
2022/08/14 09:03:17;;;;;;;2.38;1.42;;;29.80;41.90;;;-147.20;100.00;58430.41;5116091;28;20081;-10
2022/08/14 09:05:54;;;;;;;1.60;1.50;;;29.80;42.00;;;-147.20;100.00;58430.41;5116128;28;20075;-10
2022/08/14 09:08:28;;;;;;;1.42;1.33;;;29.80;42.00;;;-147.20;100.00;58430.41;5112901;28;20048;-10
2022/08/14 09:10:55;;;;;;;1.60;1.50;;;29.80;42.00;;;-147.20;100.00;58430.41;5115914;28;20044;-9
2022/08/14 09:13:25;;;;;;;1.50;1.40;;;29.70;42.00;;;-147.20;100.00;58430.41;5095107;28;20049;-9
2022/08/14 09:15:52;;;;;;;1.13;1.10;;;29.70;42.10;;;-147.20;100.00;58430.41;5115381;28;20047;-9
2022/08/14 09:18:21;;;;;;;1.63;1.52;;;29.70;42.10;;;-147.20;100.00;58430.41;5115454;28;20054;-10
2022/08/14 09:20:51;;;;;;;1.77;1.67;;;29.70;42.10;;;-147.20;100.00;58430.41;5115540;28;20134;-10
2022/08/14 09:23:17;;;;;;;1.55;1.45;;;29.70;42.20;;;-147.20;100.00;58430.41;5115474;28;20092;-9
2022/08/14 09:25:47;;;;;;;1.75;1.65;;;29.70;42.70;;;-147.20;100.00;58430.41;5115183;28;20047;-10
2022/08/14 09:28:16;;;;;;;1.70;1.60;;;29.70;42.20;;;-147.20;100.00;58430.41;5115414;28;20127;-10
2022/08/14 09:30:50;;;;;;;1.73;1.63;;;29.70;42.20;;;-147.20;100.00;58430.41;5115809;28;20134;-10
2022/08/14 09:33:50;;;;;;;1.55;1.45;;;29.70;42.20;;;-147.20;100.00;58430.41;5097293;28;20048;-9
2022/08/14 09:36:31;;;;;;;1.70;1.60;;;29.70;42.20;;;-147.20;100.00;58430.41;5115416;28;20047;-9
2022/08/14 09:39:15;;;;;;;1.30;1.20;;;29.70;42.20;;;-147.20;100.00;58430.41;5096240;28;20134;-10
2022/08/14 09:42:21;;;;;;;1.52;1.42;;;29.60;42.20;;;-147.20;100.00;58430.41;5096213;28;20040;-9
2022/08/14 09:45:31;;;;;;;1.77;1.67;;;29.60;42.20;;;-147.20;100.00;58430.41;5096442;28;20131;-10
2022/08/14 09:47:57;;;;;;;1.30;1.30;;;29.60;42.30;;;-147.20;100.00;58430.41;5115063;28;20051;-9
2022/08/14 09:50:44;;;;;;;2.20;1.42;;;29.60;42.30;;;-147.20;100.00;58430.41;5114958;28;20382;-9
2022/08/14 09:53:11;;;;;;;1.60;1.50;;;29.70;42.90;;;-147.20;100.00;58430.41;5114914;28;20483;-10
2022/08/14 09:55:37;;;;;;;1.40;1.30;;;29.70;42.40;;;-147.20;100.00;58430.41;5096638;28;20080;-10
2022/08/14 09:58:18;;;;;;;1.70;1.60;;;29.70;42.40;;;-147.20;100.00;58430.41;5115152;28;20099;-10
2022/08/14 10:00:48;;;;;;;;;;;29.70;42.40;;;-147.20;100.00;58430.41;5115359;28;20043;-9
2022/08/14 10:03:35;;;;;;;1.70;1.43;;;29.60;42.90;;;-147.20;100.00;58430.41;5114762;28;19916;-10
2022/08/14 10:06:10;;;;;;;1.55;1.45;;;29.60;42.30;;;-147.20;100.00;58430.41;5114616;28;20492;-10
2022/08/14 10:08:49;;;;;;;2.00;1.80;;;29.60;42.30;;;-147.20;100.00;58430.41;5114984;28;20052;-10
2022/08/14 10:11:20;;;;;;;1.77;1.67;;;29.60;42.40;;;-147.20;100.00;58430.41;5114459;28;20044;-10
2022/08/14 10:13:53;;;;;;;1.60;1.50;;;29.60;42.40;;;-147.20;100.00;58430.41;5114634;28;20051;-9
2022/08/14 10:16:25;;;;;;;1.70;1.60;;;29.60;42.40;;;-147.20;100.00;58430.41;5114619;28;20051;-9
2022/08/14 10:19:11;;;;;;;1.77;1.65;;;29.60;42.40;;;-147.20;100.00;58430.41;5096515;28;20050;-9
2022/08/14 10:21:42;;;;;;;1.50;1.40;;;29.60;42.40;;;-147.20;100.00;58430.41;5096440;28;20134;-9
2022/08/14 10:24:10;;;;;;;1.45;1.42;;;29.60;42.40;;;-147.20;100.00;58430.41;5114824;28;20067;-9
2022/08/14 10:26:36;;;;;;;1.50;1.40;;;29.60;42.40;;;-147.20;100.00;58430.41;5114533;28;20099;-9
2022/08/14 10:29:11;;;;;;;1.40;1.30;;;29.60;42.40;;;-147.20;100.00;58430.41;5114460;28;20055;-10